createdAt,value
2022-11-23T00:01:29.740Z,7.50
2022-11-23T00:03:58.373Z,7.47
2022-11-23T00:06:26.365Z,7.83
2022-11-23T00:08:54.473Z,7.07
2022-11-23T00:11:22.614Z,8.03
2022-11-23T00:13:50.406Z,7.67
2022-11-23T00:16:18.971Z,7.90
2022-11-23T00:18:46.632Z,7.03
2022-11-23T00:21:15.829Z,6.87
2022-11-23T00:23:43.475Z,6.90
2022-11-23T00:26:11.223Z,7.30
2022-11-23T00:28:40.526Z,6.90
2022-11-23T00:31:10.248Z,7.03
2022-11-23T00:33:37.913Z,7.17
2022-11-23T00:36:12.391Z,7.83
2022-11-23T00:38:39.948Z,7.23
2022-11-23T00:41:08.894Z,7.33
2022-11-23T00:43:36.736Z,7.23
2022-11-23T00:46:04.068Z,6.90
2022-11-23T00:48:31.527Z,7.33
2022-11-23T00:51:00.865Z,6.90
2022-11-23T00:53:28.504Z,7.23
2022-11-23T00:55:56.776Z,6.70
2022-11-23T00:58:24.232Z,6.80
2022-11-23T01:00:51.701Z,6.80
2022-11-23T01:03:19.116Z,6.93
2022-11-23T01:05:46.454Z,7.37
2022-11-23T01:08:13.827Z,7.70
2022-11-23T01:10:41.196Z,7.17
2022-11-23T01:13:08.527Z,6.93
2022-11-23T01:15:37.627Z,6.53
2022-11-23T01:18:04.989Z,7.10
2022-11-23T01:20:32.437Z,6.80
2022-11-23T01:22:59.753Z,6.90
2022-11-23T01:25:27.212Z,6.23
2022-11-23T01:27:54.568Z,6.03
2022-11-23T01:30:23.331Z,6.73
2022-11-23T01:32:52.161Z,7.23
2022-11-23T01:35:19.533Z,7.10
2022-11-23T01:37:46.952Z,6.40
2022-11-23T01:40:15.659Z,6.97
2022-11-23T01:42:56.967Z,6.63
2022-11-23T01:45:32.459Z,6.33
2022-11-23T01:47:59.989Z,6.33
2022-11-23T01:50:27.333Z,6.17
2022-11-23T01:52:54.670Z,6.93
2022-11-23T01:55:22.145Z,6.83
2022-11-23T01:57:49.548Z,6.43
2022-11-23T02:00:17.074Z,6.10
2022-11-23T02:02:52.336Z,6.03
2022-11-23T02:05:20.459Z,6.00
2022-11-23T02:07:48.916Z,6.37
2022-11-23T02:10:17.071Z,6.27
2022-11-23T02:12:44.441Z,6.67
2022-11-23T02:15:13.089Z,6.23
2022-11-23T02:17:41.879Z,7.23
2022-11-23T02:20:10.612Z,7.03
2022-11-23T02:22:40.824Z,7.13
2022-11-23T02:25:20.501Z,7.20
2022-11-23T02:27:47.875Z,6.60
2022-11-23T02:30:15.335Z,6.47
2022-11-23T02:32:43.256Z,6.93
2022-11-23T02:35:12.576Z,6.63
2022-11-23T02:37:40.539Z,6.63
2022-11-23T02:40:26.174Z,7.47
2022-11-23T02:43:00.258Z,7.17
2022-11-23T02:45:29.314Z,7.13
2022-11-23T02:47:56.828Z,7.00
2022-11-23T02:50:24.192Z,7.17
2022-11-23T02:52:51.535Z,7.87
2022-11-23T02:55:18.997Z,6.03
2022-11-23T02:57:46.367Z,6.23
2022-11-23T03:00:14.254Z,6.53
2022-11-23T03:02:43.637Z,7.53
2022-11-23T03:05:12.427Z,6.43
2022-11-23T03:07:40.001Z,7.23
2022-11-23T03:10:07.843Z,7.10
2022-11-23T03:12:35.735Z,7.50
2022-11-23T03:15:04.223Z,7.10
2022-11-23T03:17:32.759Z,7.57
2022-11-23T03:20:00.302Z,7.47
2022-11-23T03:22:28.052Z,7.33
2022-11-23T03:24:57.644Z,6.70
2022-11-23T03:27:25.307Z,7.90
2022-11-23T03:29:53.372Z,7.43
2022-11-23T03:32:21.747Z,7.83
2022-11-23T03:34:53.282Z,7.60
2022-11-23T03:37:22.206Z,6.83
2022-11-23T03:39:49.640Z,7.30
2022-11-23T03:42:22.993Z,8.10
2022-11-23T03:44:51.207Z,7.37
2022-11-23T03:47:18.614Z,7.47
2022-11-23T03:49:46.530Z,7.23
2022-11-23T03:52:13.944Z,6.87
2022-11-23T03:54:43.530Z,7.60
2022-11-23T03:57:12.870Z,7.97
2022-11-23T03:59:40.534Z,7.07
2022-11-23T04:02:09.418Z,8.90
2022-11-23T04:04:46.444Z,6.93
2022-11-23T04:07:33.784Z,6.83
2022-11-23T04:10:04.831Z,7.03
2022-11-23T04:12:52.806Z,8.70
2022-11-23T04:15:20.295Z,8.30
2022-11-23T04:17:48.622Z,8.83
2022-11-23T04:20:16.033Z,8.53
2022-11-23T04:22:43.783Z,7.73
2022-11-23T04:25:11.463Z,7.93
2022-11-23T04:27:39.004Z,8.80
2022-11-23T04:30:06.714Z,8.60
2022-11-23T04:32:34.158Z,8.37
2022-11-23T04:35:01.627Z,8.47
2022-11-23T04:37:29.043Z,7.73
2022-11-23T04:39:56.678Z,8.67
2022-11-23T04:42:37.980Z,8.03
2022-11-23T04:52:39.947Z,7.80
2022-11-23T04:55:13.724Z,8.20
2022-11-23T04:57:50.136Z,7.27
2022-11-23T05:00:18.359Z,7.43
2022-11-23T05:02:46.891Z,8.40
2022-11-23T05:05:27.335Z,8.20
2022-11-23T05:07:55.370Z,8.17
2022-11-23T05:10:26.149Z,7.70
2022-11-23T05:12:57.754Z,7.53
2022-11-23T05:15:25.419Z,7.53
2022-11-23T05:17:58.861Z,8.87
2022-11-23T05:20:26.898Z,8.53
2022-11-23T05:22:54.408Z,10.80
2022-11-23T05:25:24.688Z,8.13
2022-11-23T05:28:11.236Z,8.40
2022-11-23T05:30:44.927Z,7.97
2022-11-23T05:33:12.866Z,8.57
2022-11-23T05:35:41.226Z,8.50
2022-11-23T05:38:09.693Z,8.83
2022-11-23T05:40:37.975Z,8.40
2022-11-23T05:43:08.224Z,8.20
2022-11-23T05:45:36.612Z,7.53
2022-11-23T05:48:04.831Z,7.97
2022-11-23T05:50:47.280Z,8.70
2022-11-23T05:53:36.278Z,7.30
2022-11-23T05:56:26.721Z,7.80
2022-11-23T05:59:08.180Z,8.27
2022-11-23T06:01:37.891Z,8.03
2022-11-23T06:04:07.716Z,7.93
2022-11-23T06:06:42.700Z,7.40
2022-11-23T06:09:12.537Z,8.63
2022-11-23T06:11:44.805Z,8.93
2022-11-23T06:14:15.851Z,8.37
2022-11-23T06:16:46.079Z,9.47
2022-11-23T06:19:36.589Z,8.27
2022-11-23T06:22:05.664Z,10.23
2022-11-23T06:24:38.037Z,8.87
2022-11-23T06:27:25.736Z,8.70
2022-11-23T06:29:53.514Z,8.13
2022-11-23T06:32:23.139Z,8.30
2022-11-23T06:34:50.687Z,9.40
2022-11-23T06:37:18.359Z,8.33
2022-11-23T06:39:51.939Z,9.63
2022-11-23T06:45:09.276Z,8.17
2022-11-23T06:47:37.565Z,8.30
2022-11-23T06:50:06.150Z,8.97
2022-11-23T06:52:34.120Z,8.43
2022-11-23T06:55:01.775Z,9.00
2022-11-23T06:57:29.443Z,9.33
2022-11-23T06:59:57.246Z,7.90
2022-11-23T07:02:31.980Z,8.40
2022-11-23T07:04:59.965Z,9.07
2022-11-23T07:07:29.530Z,8.97
2022-11-23T07:10:07.402Z,7.67
2022-11-23T07:12:47.322Z,8.30
2022-11-23T07:15:17.995Z,8.87
2022-11-23T07:17:46.389Z,8.70
2022-11-23T07:20:15.344Z,9.10
2022-11-23T07:22:43.158Z,8.23
2022-11-23T07:25:11.557Z,9.77
2022-11-23T07:27:39.260Z,10.10
2022-11-23T07:30:08.416Z,9.03
2022-11-23T07:32:35.895Z,8.40
2022-11-23T07:35:03.370Z,8.73
2022-11-23T07:37:33.423Z,8.90
2022-11-23T07:40:01.645Z,9.40
2022-11-23T07:42:35.596Z,9.17
2022-11-23T07:45:07.938Z,8.47
2022-11-23T07:47:37.687Z,8.77
2022-11-23T07:50:06.645Z,8.63
2022-11-23T07:52:35.879Z,7.57
2022-11-23T07:55:03.550Z,8.23
2022-11-23T07:57:31.064Z,8.60
2022-11-23T07:59:58.568Z,8.60
2022-11-23T08:02:26.177Z,8.27
2022-11-23T08:04:53.709Z,8.27
2022-11-23T08:07:21.199Z,8.70
2022-11-23T08:09:48.702Z,8.60
2022-11-23T08:12:16.244Z,8.10
2022-11-23T08:14:43.711Z,8.43
2022-11-23T08:17:11.163Z,9.67
2022-11-23T08:19:38.632Z,8.47
2022-11-23T08:22:06.116Z,8.53
2022-11-23T08:24:34.137Z,8.53
2022-11-23T08:27:01.830Z,8.77
2022-11-23T08:29:30.165Z,7.57
2022-11-23T08:31:57.659Z,7.57
2022-11-23T08:34:25.148Z,7.87
2022-11-23T08:36:52.588Z,7.80
2022-11-23T08:39:20.336Z,8.60
2022-11-23T08:41:47.774Z,7.60
2022-11-23T08:44:15.225Z,6.97
2022-11-23T08:46:42.713Z,7.07
2022-11-23T08:49:10.177Z,5.87
2022-11-23T08:51:37.718Z,6.57
2022-11-23T08:54:05.212Z,6.63
2022-11-23T08:56:32.695Z,6.80
2022-11-23T08:59:00.140Z,7.73
2022-11-23T09:01:27.724Z,7.30
2022-11-23T09:03:55.242Z,7.00
2022-11-23T09:06:29.151Z,6.90
2022-11-23T09:08:57.150Z,6.77
2022-11-23T09:11:26.352Z,6.50
2022-11-23T09:13:53.851Z,6.73
2022-11-23T09:16:21.474Z,6.40
2022-11-23T09:18:51.971Z,7.50
2022-11-23T09:21:19.466Z,6.83
2022-11-23T09:23:46.933Z,7.37
2022-11-23T09:26:14.509Z,9.17
2022-11-23T09:28:44.887Z,8.67
2022-11-23T09:31:12.630Z,6.57
2022-11-23T09:33:40.128Z,7.20
2022-11-23T09:36:07.767Z,7.40
2022-11-23T09:41:41.399Z,9.10
2022-11-23T09:44:34.240Z,8.87
2022-11-23T09:47:12.395Z,9.00
2022-11-23T09:49:42.765Z,9.07
2022-11-23T09:52:16.013Z,9.13
2022-11-23T09:54:44.912Z,8.73
2022-11-23T09:57:13.845Z,7.87
2022-11-23T09:59:42.909Z,7.90
2022-11-23T10:02:24.034Z,7.90
2022-11-23T10:04:53.317Z,8.83
2022-11-23T10:07:33.085Z,7.70
2022-11-23T10:10:11.777Z,5.97
2022-11-23T10:12:51.522Z,6.33
2022-11-23T10:15:42.237Z,5.63
2022-11-23T10:18:28.335Z,6.23
2022-11-23T10:20:58.612Z,6.90
2022-11-23T10:23:32.347Z,7.00
2022-11-23T10:26:00.440Z,6.03
2022-11-23T10:28:30.295Z,7.40
2022-11-23T10:31:05.036Z,6.07
2022-11-23T10:33:38.032Z,7.23
2022-11-23T10:36:05.707Z,7.13
2022-11-23T10:38:33.133Z,7.60
2022-11-23T10:41:10.921Z,8.00
2022-11-23T10:43:49.086Z,8.73
2022-11-23T10:46:31.179Z,8.40
2022-11-23T10:49:31.062Z,8.33
2022-11-23T10:51:59.701Z,8.33
2022-11-23T10:54:27.838Z,7.57
2022-11-23T10:56:55.877Z,8.10
2022-11-23T10:59:27.466Z,8.10
2022-11-23T11:02:21.448Z,8.37
2022-11-23T11:04:54.504Z,8.20
2022-11-23T11:07:30.750Z,9.17
2022-11-23T11:10:02.042Z,8.93
2022-11-23T11:12:30.315Z,7.63
2022-11-23T11:15:05.258Z,9.40
2022-11-23T11:17:39.760Z,9.27
2022-11-23T11:20:25.435Z,10.03
2022-11-23T11:22:52.925Z,8.70
2022-11-23T11:25:29.209Z,9.90
2022-11-23T11:27:57.009Z,9.00
2022-11-23T11:30:25.147Z,9.07
2022-11-23T11:32:55.453Z,9.63
2022-11-23T11:35:26.061Z,8.83
2022-11-23T11:37:55.412Z,10.20
2022-11-23T11:40:28.710Z,9.37
2022-11-23T11:43:03.360Z,9.77
2022-11-23T11:45:34.405Z,9.43
2022-11-23T11:48:16.173Z,9.10
2022-11-23T11:51:03.869Z,9.17
2022-11-23T11:53:38.830Z,9.30
2022-11-23T11:56:06.370Z,9.50
2022-11-23T11:58:40.328Z,9.23
2022-11-23T12:01:28.108Z,8.73
2022-11-23T12:04:00.840Z,8.73
2022-11-23T12:06:31.070Z,9.07
2022-11-23T12:09:04.612Z,9.47
2022-11-23T12:11:32.128Z,9.47
2022-11-23T12:14:03.487Z,8.47
2022-11-23T12:16:33.997Z,9.20
2022-11-23T12:19:04.434Z,9.37
2022-11-23T12:21:55.695Z,8.83
2022-11-23T12:24:46.516Z,8.13
2022-11-23T12:27:23.176Z,8.30
2022-11-23T12:29:50.561Z,8.57
2022-11-23T12:32:24.106Z,9.20
2022-11-23T12:35:11.929Z,8.97
2022-11-23T12:37:48.913Z,8.80
2022-11-23T12:40:22.246Z,9.37
2022-11-23T12:42:53.792Z,8.23
2022-11-23T12:45:56.933Z,8.00
2022-11-23T12:48:29.913Z,8.47
2022-11-23T12:50:57.415Z,8.23
2022-11-23T12:53:30.761Z,8.27
2022-11-23T12:56:09.763Z,8.60
2022-11-23T12:58:38.711Z,8.50
2022-11-23T13:01:08.309Z,8.90
2022-11-23T13:03:47.776Z,9.67
2022-11-23T13:06:59.644Z,8.73
2022-11-23T13:09:41.199Z,9.20
2022-11-23T13:12:11.659Z,8.60
2022-11-23T13:14:46.247Z,8.57
2022-11-23T13:17:19.820Z,7.90
2022-11-23T13:19:50.271Z,7.30
2022-11-23T13:22:20.545Z,7.90
2022-11-23T13:25:02.238Z,7.33
2022-11-23T13:27:43.027Z,7.20
2022-11-23T13:30:22.697Z,6.90
2022-11-23T13:32:53.327Z,6.67
2022-11-23T13:35:23.960Z,6.90
2022-11-23T13:37:57.702Z,7.23
2022-11-23T13:40:33.163Z,6.90
2022-11-23T13:43:02.344Z,7.50
2022-11-23T13:45:34.066Z,7.47
2022-11-23T13:48:19.365Z,6.77
2022-11-23T13:50:53.832Z,10.90
2022-11-23T13:53:21.293Z,7.13
2022-11-23T13:55:49.061Z,7.23
2022-11-23T13:58:25.441Z,6.60
2022-11-23T14:01:00.059Z,7.00
2022-11-23T14:03:49.332Z,6.63
2022-11-23T14:06:24.237Z,6.77
2022-11-23T14:09:00.305Z,6.53
2022-11-23T14:11:28.232Z,6.30
2022-11-23T14:14:02.136Z,6.70
2022-11-23T14:16:48.022Z,6.70
2022-11-23T14:19:23.159Z,6.33
2022-11-23T14:22:02.618Z,6.43
2022-11-23T14:24:57.435Z,6.27
2022-11-23T14:27:47.653Z,6.03
2022-11-23T14:30:15.559Z,6.67
2022-11-23T14:32:42.993Z,6.43
2022-11-23T14:35:23.792Z,6.67
2022-11-23T14:38:10.017Z,6.43
2022-11-23T14:40:57.887Z,6.50
2022-11-23T14:43:26.389Z,5.77
2022-11-23T14:45:54.116Z,6.50
2022-11-23T14:48:22.982Z,6.60
2022-11-23T14:51:01.506Z,6.80
2022-11-23T14:53:49.121Z,7.00
2022-11-23T14:56:36.932Z,6.93
2022-11-23T14:59:24.963Z,6.37
2022-11-23T15:01:58.291Z,6.67
2022-11-23T15:04:39.494Z,7.00
2022-11-23T15:07:13.364Z,6.37
2022-11-23T15:09:50.257Z,6.63
2022-11-23T15:12:22.450Z,6.37
2022-11-23T15:14:51.022Z,6.63
2022-11-23T15:17:19.724Z,6.47
2022-11-23T15:19:56.982Z,7.53
2022-11-23T15:22:24.793Z,7.13
2022-11-23T15:24:52.382Z,8.03
2022-11-23T15:27:30.353Z,8.00
2022-11-23T15:29:59.520Z,6.73
2022-11-23T15:32:33.285Z,7.37
2022-11-23T15:35:03.532Z,7.93
2022-11-23T15:37:31.606Z,6.90
2022-11-23T15:39:59.157Z,7.87
2022-11-23T15:42:27.494Z,7.83
2022-11-23T15:44:55.440Z,8.47
2022-11-23T15:47:27.255Z,7.23
2022-11-23T15:49:59.659Z,10.53
2022-11-23T15:52:28.961Z,8.50
2022-11-23T15:54:56.689Z,8.40
2022-11-23T15:57:26.273Z,8.00
2022-11-23T15:59:57.894Z,6.67
2022-11-23T16:02:28.738Z,7.87
2022-11-23T16:05:12.165Z,8.30
2022-11-23T16:07:53.537Z,7.20
2022-11-23T16:10:25.200Z,7.67
2022-11-23T16:12:53.780Z,7.23
2022-11-23T16:15:32.605Z,7.67
2022-11-23T16:18:03.272Z,7.53
2022-11-23T16:20:30.902Z,7.77
2022-11-23T16:23:00.208Z,7.93
2022-11-23T16:25:32.303Z,7.97
2022-11-23T16:28:04.436Z,7.43
2022-11-23T16:30:39.164Z,8.00
2022-11-23T16:33:07.064Z,8.00
2022-11-23T16:35:34.528Z,7.83
2022-11-23T16:38:02.081Z,7.30
2022-11-23T16:40:29.523Z,7.80
2022-11-23T16:42:59.282Z,8.07
2022-11-23T16:45:27.577Z,7.50
2022-11-23T16:47:56.268Z,7.67
2022-11-23T16:50:24.816Z,7.50
2022-11-23T16:52:52.338Z,7.83
2022-11-23T16:55:19.836Z,7.73
2022-11-23T16:57:47.745Z,8.90
2022-11-23T17:00:17.521Z,8.37
2022-11-23T17:02:45.208Z,7.70
2022-11-23T17:05:19.697Z,7.90
2022-11-23T17:07:47.728Z,7.93
2022-11-23T17:10:15.449Z,7.70
2022-11-23T17:12:48.380Z,7.47
2022-11-23T17:15:16.175Z,7.70
2022-11-23T17:17:43.650Z,8.90
2022-11-23T17:20:13.666Z,8.07
2022-11-23T17:22:41.130Z,7.50
2022-11-23T17:25:14.444Z,7.57
2022-11-23T17:27:43.793Z,7.30
2022-11-23T17:30:15.764Z,8.00
2022-11-23T17:32:43.435Z,7.57
2022-11-23T17:35:11.002Z,7.40
2022-11-23T17:37:38.472Z,7.80
2022-11-23T17:40:06.365Z,8.00
2022-11-23T17:42:34.426Z,8.00
2022-11-23T17:45:02.162Z,8.43
2022-11-23T17:47:30.492Z,8.33
2022-11-23T17:49:58.325Z,7.93
2022-11-23T17:52:26.064Z,7.63
2022-11-23T17:54:53.770Z,8.13
2022-11-23T17:57:24.893Z,7.90
2022-11-23T17:59:52.514Z,7.87
2022-11-23T18:02:21.169Z,7.03
2022-11-23T18:04:49.104Z,7.70
2022-11-23T18:07:17.411Z,7.90
2022-11-23T18:09:44.942Z,8.03
2022-11-23T18:12:12.459Z,7.90
2022-11-23T18:14:39.923Z,7.50
2022-11-23T18:17:07.484Z,7.67
2022-11-23T18:19:35.112Z,7.60
2022-11-23T18:22:02.846Z,7.73
2022-11-23T18:24:30.418Z,7.63
2022-11-23T18:26:57.872Z,7.10
2022-11-23T18:29:25.334Z,7.03
2022-11-23T18:31:53.061Z,7.33
2022-11-23T18:34:20.512Z,7.63
2022-11-23T18:36:48.103Z,7.20
2022-11-23T18:39:15.637Z,7.33
2022-11-23T18:41:43.105Z,7.33
2022-11-23T18:44:10.598Z,7.20
2022-11-23T18:46:38.438Z,7.23
2022-11-23T18:49:06.062Z,8.60
2022-11-23T18:51:34.185Z,8.50
2022-11-23T18:54:01.663Z,8.50
2022-11-23T18:56:29.115Z,9.33
2022-11-23T18:58:56.577Z,10.03
2022-11-23T19:01:24.988Z,10.43
2022-11-23T19:03:53.418Z,10.10
2022-11-23T19:06:21.720Z,9.37
2022-11-23T19:08:57.437Z,9.23
2022-11-23T19:11:25.903Z,9.37
2022-11-23T19:13:54.729Z,8.90
2022-11-23T19:16:23.864Z,10.00
2022-11-23T19:18:55.262Z,10.77
2022-11-23T19:21:24.630Z,8.40
2022-11-23T19:23:53.415Z,10.43
2022-11-23T19:26:21.166Z,9.73
2022-11-23T19:28:48.746Z,10.70
2022-11-23T19:31:17.889Z,9.77
2022-11-23T19:33:46.069Z,9.80
2022-11-23T19:36:14.911Z,9.23
2022-11-23T19:38:42.465Z,10.80
2022-11-23T19:41:10.966Z,9.20
2022-11-23T19:43:38.506Z,9.57
2022-11-23T19:46:06.824Z,9.40
2022-11-23T19:48:35.253Z,10.63
2022-11-23T19:51:02.801Z,9.20
2022-11-23T19:53:31.130Z,10.30
2022-11-23T19:56:14.660Z,9.00
2022-11-23T19:58:42.611Z,9.50
2022-11-23T20:01:15.024Z,9.40
2022-11-23T20:03:43.592Z,10.00
2022-11-23T20:06:15.852Z,9.77
2022-11-23T20:08:43.891Z,9.27
2022-11-23T20:11:13.297Z,9.13
2022-11-23T20:13:41.111Z,9.40
2022-11-23T20:16:10.035Z,9.20
2022-11-23T20:18:37.657Z,8.70
2022-11-23T20:21:05.556Z,9.77
2022-11-23T20:23:33.016Z,9.17
2022-11-23T20:26:00.511Z,9.70
2022-11-23T20:28:28.281Z,9.83
2022-11-23T20:30:55.773Z,9.20
2022-11-23T20:33:23.193Z,9.27
2022-11-23T20:35:50.711Z,7.40
2022-11-23T20:38:18.505Z,10.43
2022-11-23T20:40:46.001Z,9.30
2022-11-23T20:43:13.546Z,9.70
2022-11-23T20:45:41.003Z,9.43
2022-11-23T20:48:08.490Z,10.07
2022-11-23T20:50:35.988Z,8.93
2022-11-23T20:53:04.158Z,9.70
2022-11-23T20:55:32.063Z,8.60
2022-11-23T20:57:59.631Z,9.07
2022-11-23T21:00:27.140Z,9.30
2022-11-23T21:02:58.620Z,9.70
2022-11-23T21:05:26.077Z,9.77
2022-11-23T21:07:53.572Z,10.27
2022-11-23T21:10:39.849Z,9.90
2022-11-23T21:13:37.197Z,8.60
2022-11-23T21:16:16.325Z,8.50
2022-11-23T21:18:43.929Z,8.80
2022-11-23T21:21:12.127Z,8.80
2022-11-23T21:23:39.601Z,9.03
2022-11-23T21:26:08.407Z,8.20
2022-11-23T21:28:37.012Z,7.93
2022-11-23T21:31:08.399Z,8.23
2022-11-23T21:33:38.694Z,8.60
2022-11-23T21:36:06.372Z,8.67
2022-11-23T21:38:35.476Z,8.53
2022-11-23T21:41:03.374Z,8.37
2022-11-23T21:43:31.714Z,8.73
2022-11-23T21:46:21.552Z,8.57
2022-11-23T21:48:49.144Z,8.37
2022-11-23T21:51:17.007Z,8.83
2022-11-23T21:53:44.861Z,8.27
2022-11-23T21:56:16.340Z,9.63
2022-11-23T21:58:44.229Z,8.40
2022-11-23T22:01:16.088Z,8.97
2022-11-23T22:03:44.913Z,8.93
2022-11-23T22:06:20.007Z,9.10
2022-11-23T22:08:49.335Z,9.10
2022-11-23T22:11:18.140Z,9.13
2022-11-23T22:13:45.995Z,9.47
2022-11-23T22:16:14.402Z,9.33
2022-11-23T22:18:41.941Z,9.07
2022-11-23T22:21:09.587Z,8.73
2022-11-23T22:23:37.549Z,8.17
2022-11-23T22:26:05.913Z,9.27
2022-11-23T22:28:34.165Z,9.03
2022-11-23T22:31:03.027Z,9.10
2022-11-23T22:33:30.923Z,8.70
2022-11-23T22:36:02.364Z,8.63
2022-11-23T22:38:32.307Z,8.80
2022-11-23T22:41:00.499Z,8.60
2022-11-23T22:43:28.006Z,9.00
2022-11-23T22:45:58.606Z,9.40
2022-11-23T22:48:29.956Z,9.57
2022-11-23T22:50:58.699Z,9.40
2022-11-23T22:53:26.380Z,9.73
2022-11-23T22:55:53.878Z,9.03
2022-11-23T22:58:21.345Z,9.57
2022-11-23T23:00:48.797Z,9.33
2022-11-23T23:03:16.485Z,8.57
2022-11-23T23:05:44.040Z,8.77
2022-11-23T23:08:12.767Z,8.87
2022-11-23T23:10:40.295Z,9.13
2022-11-23T23:13:07.756Z,8.37
2022-11-23T23:15:35.218Z,8.97
2022-11-23T23:18:02.628Z,8.67
2022-11-23T23:20:30.129Z,8.70
2022-11-23T23:22:57.582Z,8.63
2022-11-23T23:25:25.032Z,7.97
2022-11-23T23:27:52.512Z,8.07
2022-11-23T23:30:20.531Z,8.53
2022-11-23T23:32:48.294Z,8.73
2022-11-23T23:35:15.795Z,7.87
2022-11-23T23:37:43.305Z,7.97
2022-11-23T23:40:12.124Z,6.83
2022-11-23T23:42:39.564Z,7.40
2022-11-23T23:45:07.249Z,7.83
2022-11-23T23:47:34.687Z,7.33
2022-11-23T23:50:02.072Z,7.43
2022-11-23T23:52:29.528Z,6.50
2022-11-23T23:54:57.373Z,6.90
2022-11-23T23:57:24.849Z,6.43
2022-11-23T23:59:52.263Z,6.67
